Time;durP1;ratioP1;P1;durP2;ratioP2;P2;SDS_P1;SDS_P2;PMS_P1;PMS_P2;Temp;Humidity;BMP_temperature;BMP_pressure;BME280_temperature;BME280_humidity;BME280_pressure;Samples;Min_cycle;Max_cycle;Signal;HPM_P1;HPM_P2
2021/01/06 00:01:37;;;;;;;;;;;2.60;99.90;;;;;;5021552;28;19932;-79
2021/01/06 00:04:05;;;;;;;;;;;2.50;99.90;;;;;;5020560;28;19925;-79
2021/01/06 00:06:34;;;;;;;;;;;2.50;99.90;;;;;;5021388;28;19937;-79
2021/01/06 00:09:02;;;;;;;;;;;2.50;99.90;;;;;;5022757;28;19960;-79
2021/01/06 00:11:33;;;;;;;;;;;2.50;99.90;;;;;;5024889;28;19929;-79
2021/01/06 00:14:00;;;;;;;;;;;2.50;99.90;;;;;;5021386;28;19926;-79
2021/01/06 00:16:29;;;;;;;;;;;2.50;99.90;;;;;;5022585;28;19948;-79
2021/01/06 00:18:56;;;;;;;;;;;2.50;99.90;;;;;;5029164;28;19925;-79
2021/01/06 00:21:24;;;;;;;;;;;2.50;99.90;;;;;;5039843;28;19933;-79
2021/01/06 00:23:52;;;;;;;;;;;2.50;99.90;;;;;;5042541;28;19925;-79
2021/01/06 00:26:19;;;;;;;;;;;2.20;99.90;;;;;;5044524;28;20269;-79
2021/01/06 00:28:47;;;;;;;;;;;2.40;99.90;;;;;;5044020;28;19935;-79
2021/01/06 00:31:14;;;;;;;;;;;2.40;99.90;;;;;;5044369;28;19980;-79
2021/01/06 00:33:46;;;;;;;;;;;2.30;99.90;;;;;;5044004;28;19925;-79
2021/01/06 00:36:17;;;;;;;;;;;2.30;99.90;;;;;;5043298;28;19925;-79
2021/01/06 00:38:45;;;;;;;;;;;2.20;99.90;;;;;;5044106;28;19952;-79
2021/01/06 00:41:12;;;;;;;;;;;2.20;99.90;;;;;;5043327;28;19925;-79
2021/01/06 00:43:40;;;;;;;;;;;0.10;99.90;;;;;;5044329;28;19925;-79
2021/01/06 00:46:08;;;;;;;;;;;2.10;99.90;;;;;;5043808;28;19932;-79
2021/01/06 00:48:35;;;;;;;;;;;2.10;99.90;;;;;;5042655;28;20311;-79
2021/01/06 00:51:04;;;;;;;;;;;2.10;99.90;;;;;;5044106;28;19933;-79
2021/01/06 00:53:31;;;;;;;;;;;2.10;99.90;;;;;;5043897;28;19929;-79
2021/01/06 00:55:58;;;;;;;;;;;2.10;99.90;;;;;;5042994;28;19935;-79
2021/01/06 00:58:24;;;;;;;;;;;2.10;99.90;;;;;;5042271;28;20265;-79
2021/01/06 01:00:53;;;;;;;;;;;2.00;99.90;;;;;;5040810;28;20358;-79
2021/01/06 01:03:20;;;;;;;;;;;2.00;99.90;;;;;;5040064;28;19925;-79
2021/01/06 01:05:48;;;;;;;;;;;2.00;99.90;;;;;;5039971;28;19925;-79
2021/01/06 01:08:17;;;;;;;;;;;2.00;99.90;;;;;;5040462;28;20045;-79
2021/01/06 01:10:45;;;;;;;;;;;2.00;99.90;;;;;;5042568;28;19925;-79
2021/01/06 01:13:22;;;;;;;;;;;1.90;99.90;;;;;;5042038;28;19980;-79
2021/01/06 01:15:50;;;;;;;;;;;1.90;99.90;;;;;;5041001;28;20342;-79
2021/01/06 01:18:18;;;;;;;;;;;1.90;99.90;;;;;;5039624;28;19956;-79
2021/01/06 01:20:46;;;;;;;;;;;1.80;99.90;;;;;;5039807;28;19925;-79
2021/01/06 01:23:14;;;;;;;;;;;1.80;99.90;;;;;;5039431;28;20367;-79
2021/01/06 01:25:42;;;;;;;;;;;1.80;99.90;;;;;;5038965;28;20391;-79
2021/01/06 01:28:12;;;;;;;;;;;1.70;99.90;;;;;;5039062;28;19929;-79
2021/01/06 01:30:40;;;;;;;;;;;1.70;99.90;;;;;;5037595;28;20385;-78
2021/01/06 01:33:08;;;;;;;;;;;1.70;99.90;;;;;;5037049;28;19925;-78
2021/01/06 01:35:35;;;;;;;;;;;1.60;99.90;;;;;;5036697;28;20239;-78
2021/01/06 01:38:03;;;;;;;;;;;1.60;99.90;;;;;;5036403;28;19925;-78
2021/01/06 01:40:31;;;;;;;;;;;1.60;99.90;;;;;;5035357;28;19931;-78
2021/01/06 01:43:01;;;;;;;;;;;1.60;99.90;;;;;;5035760;28;19947;-78
2021/01/06 01:45:32;;;;;;;;;;;1.60;99.90;;;;;;5035886;28;19936;-78
2021/01/06 01:48:00;;;;;;;;;;;1.60;99.90;;;;;;5035361;28;19929;-78
2021/01/06 01:50:27;;;;;;;;;;;1.50;99.90;;;;;;5035384;28;19925;-78
2021/01/06 01:52:57;;;;;;;;;;;1.40;99.90;;;;;;5035700;28;20350;-78
2021/01/06 01:55:24;;;;;;;;;;;1.40;99.90;;;;;;5036377;28;19925;-78
2021/01/06 01:57:53;;;;;;;;;;;1.40;99.90;;;;;;5035622;28;19925;-78
2021/01/06 02:00:22;;;;;;;;;;;1.40;99.90;;;;;;5035630;28;19925;-78
2021/01/06 02:02:55;;;;;;;;;;;1.40;99.90;;;;;;5035751;28;19940;-78
2021/01/06 02:05:23;;;;;;;;;;;1.40;99.90;;;;;;5036652;28;19925;-79
2021/01/06 02:07:52;;;;;;;;;;;1.30;99.90;;;;;;5036265;28;19926;-78
2021/01/06 02:10:21;;;;;;;;;;;1.30;99.90;;;;;;5037455;28;19925;-79
2021/01/06 02:12:49;;;;;;;;;;;1.30;99.90;;;;;;5036276;28;19925;-79
2021/01/06 02:15:18;;;;;;;;;;;1.30;99.90;;;;;;5036520;28;19933;-79
2021/01/06 02:17:46;;;;;;;;;;;1.20;99.90;;;;;;5036090;28;19925;-79
2021/01/06 02:20:16;;;;;;;;;;;1.20;99.90;;;;;;5035798;28;20273;-78
2021/01/06 02:22:45;;;;;;;;;;;1.10;99.90;;;;;;5036360;28;19925;-79
2021/01/06 02:25:13;;;;;;;;;;;1.10;99.90;;;;;;5036222;28;19990;-78
2021/01/06 02:27:41;;;;;;;;;;;1.10;99.90;;;;;;5036544;28;19935;-78
2021/01/06 02:30:09;;;;;;;;;;;1.10;99.90;;;;;;5030312;28;19925;-78
2021/01/06 02:32:36;;;;;;;;;;;1.10;99.90;;;;;;5016299;28;19948;-78
2021/01/06 02:35:04;;;;;;;;;;;1.20;99.90;;;;;;5016653;28;19935;-79
2021/01/06 02:37:32;;;;;;;;;;;1.20;99.90;;;;;;5016866;28;19929;-78
2021/01/06 02:39:59;;;;;;;;;;;1.20;99.90;;;;;;5017401;28;19932;-79
2021/01/06 02:42:26;;;;;;;;;;;1.20;99.90;;;;;;5017627;28;19952;-79
2021/01/06 02:44:54;;;;;;;;;;;1.20;99.90;;;;;;5017330;28;19963;-79
2021/01/06 02:47:21;;;;;;;;;;;1.30;99.90;;;;;;5017514;28;19926;-79
2021/01/06 02:49:48;;;;;;;;;;;1.20;99.90;;;;;;5017229;28;19929;-79
2021/01/06 02:52:16;;;;;;;;;;;1.20;99.90;;;;;;5019157;28;19932;-79
2021/01/06 02:54:44;;;;;;;;;;;1.10;99.90;;;;;;5021322;28;19925;-78
2021/01/06 02:57:13;;;;;;;;;;;1.10;99.90;;;;;;5020533;28;19991;-79
2021/01/06 02:59:41;;;;;;;;;;;1.10;99.90;;;;;;5022548;28;20269;-79
2021/01/06 03:02:08;;;;;;;;;;;1.10;99.90;;;;;;5040710;28;19936;-79
2021/01/06 03:04:37;;;;;;;;;;;1.00;99.90;;;;;;5040488;28;20391;-78
2021/01/06 03:07:05;;;;;;;;;;;1.00;99.90;;;;;;5041238;28;19925;-78
2021/01/06 03:09:32;;;;;;;;;;;1.00;99.90;;;;;;5042094;28;20308;-78
2021/01/06 03:12:00;;;;;;;;;;;1.00;99.90;;;;;;5038415;28;19929;-78
2021/01/06 03:14:28;;;;;;;;;;;1.00;99.90;;;;;;5038396;28;19925;-78
2021/01/06 03:16:56;;;;;;;;;;;0.90;99.90;;;;;;5038163;28;19925;-78
2021/01/06 03:19:22;;;;;;;;;;;1.00;99.90;;;;;;5038011;28;19925;-78
2021/01/06 03:21:49;;;;;;;;;;;1.00;99.90;;;;;;5038350;28;19936;-78
2021/01/06 03:24:17;;;;;;;;;;;1.00;99.90;;;;;;5038172;28;19925;-78
2021/01/06 03:26:43;;;;;;;;;;;1.00;99.90;;;;;;5038476;28;19935;-78
2021/01/06 03:29:09;;;;;;;;;;;1.10;99.90;;;;;;5038513;28;20265;-78
2021/01/06 03:31:37;;;;;;;;;;;1.10;99.90;;;;;;5038255;28;20357;-78
2021/01/06 03:34:04;;;;;;;;;;;1.20;99.90;;;;;;5037459;28;19943;-78
2021/01/06 03:36:31;;;;;;;;;;;1.20;99.90;;;;;;5038299;28;19929;-78
2021/01/06 03:38:58;;;;;;;;;;;1.20;99.90;;;;;;5038176;28;19925;-78
2021/01/06 03:41:25;;;;;;;;;;;1.20;99.90;;;;;;5037981;28;19925;-78
2021/01/06 03:43:52;;;;;;;;;;;1.20;99.90;;;;;;5038544;28;19931;-78
2021/01/06 03:46:19;;;;;;;;;;;1.20;99.90;;;;;;5038598;28;19929;-79
2021/01/06 03:48:57;;;;;;;;;;;1.20;99.90;;;;;;5038632;28;20342;-78
2021/01/06 03:51:24;;;;;;;;;;;1.20;99.90;;;;;;5038154;28;19926;-79
2021/01/06 03:53:50;;;;;;;;;;;1.10;99.90;;;;;;5038235;28;19936;-78
2021/01/06 03:56:19;;;;;;;;;;;1.20;99.90;;;;;;5038376;28;19925;-79
2021/01/06 03:58:46;;;;;;;;;;;1.20;99.90;;;;;;5038305;28;20006;-79
2021/01/06 04:01:25;;;;;;;;;;;1.20;99.90;;;;;;5038088;28;19929;-79
2021/01/06 04:03:54;;;;;;;;;;;1.20;99.90;;;;;;5038115;28;19925;-78
2021/01/06 04:06:20;;;;;;;;;;;1.20;99.90;;;;;;5038412;28;19935;-79
2021/01/06 04:08:47;;;;;;;;;;;1.20;99.90;;;;;;5038605;28;19936;-79
2021/01/06 04:11:14;;;;;;;;;;;1.20;99.90;;;;;;5037603;28;20361;-79
2021/01/06 04:13:40;;;;;;;;;;;1.20;99.90;;;;;;5038371;28;20353;-79
2021/01/06 04:16:06;;;;;;;;;;;1.20;99.90;;;;;;5038407;28;20350;-79
2021/01/06 04:18:33;;;;;;;;;;;1.20;99.90;;;;;;5038491;28;19935;-79
2021/01/06 04:21:04;;;;;;;;;;;1.20;99.90;;;;;;5038175;28;19925;-79
2021/01/06 04:23:30;;;;;;;;;;;1.10;99.90;;;;;;5037901;28;19929;-79
2021/01/06 04:25:57;;;;;;;;;;;1.10;99.90;;;;;;5038495;28;20361;-79
2021/01/06 04:28:23;;;;;;;;;;;1.10;99.90;;;;;;5038235;28;19925;-79
2021/01/06 04:30:50;;;;;;;;;;;1.20;99.90;;;;;;5038474;28;19931;-79
2021/01/06 04:33:17;;;;;;;;;;;1.20;99.90;;;;;;5038065;28;19978;-79
2021/01/06 04:35:43;;;;;;;;;;;1.20;99.90;;;;;;5037997;28;19935;-79
2021/01/06 04:38:13;;;;;;;;;;;1.20;99.90;;;;;;5037485;28;19929;-79
2021/01/06 04:40:40;;;;;;;;;;;1.10;99.90;;;;;;5037473;28;19940;-79
2021/01/06 04:43:09;;;;;;;;;;;1.10;99.90;;;;;;5037805;28;19925;-79
2021/01/06 04:45:36;;;;;;;;;;;1.10;99.90;;;;;;5037629;28;19925;-79
2021/01/06 04:48:17;;;;;;;;;;;1.10;99.90;;;;;;5037817;28;19925;-79
2021/01/06 04:51:10;;;;;;;;;;;1.10;99.90;;;;;;5037435;28;19925;-79
2021/01/06 04:53:40;;;;;;;;;;;1.00;99.90;;;;;;5037669;28;19925;-79
2021/01/06 04:56:12;;;;;;;;;;;1.00;99.90;;;;;;5037574;28;19937;-79
2021/01/06 04:58:39;;;;;;;;;;;1.00;99.90;;;;;;5037624;28;19935;-79
2021/01/06 05:01:15;;;;;;;;;;;1.00;99.90;;;;;;5037508;28;19990;-79
2021/01/06 05:03:49;;;;;;;;;;;1.10;99.90;;;;;;5037364;28;20350;-79
2021/01/06 05:06:30;;;;;;;;;;;1.10;99.90;;;;;;5037634;28;19936;-79
2021/01/06 05:08:58;;;;;;;;;;;1.10;99.90;;;;;;5035326;28;19926;-79
2021/01/06 05:11:25;;;;;;;;;;;1.10;99.90;;;;;;5037612;28;19987;-79
2021/01/06 05:13:53;;;;;;;;;;;1.10;99.90;;;;;;5037331;28;19925;-79
2021/01/06 05:16:20;;;;;;;;;;;1.10;99.90;;;;;;5037542;28;20350;-79
2021/01/06 05:18:47;;;;;;;;;;;1.10;99.90;;;;;;5037323;28;19936;-79
2021/01/06 05:21:14;;;;;;;;;;;1.10;99.90;;;;;;5037477;28;19925;-79
2021/01/06 05:23:41;;;;;;;;;;;1.10;99.90;;;;;;5037207;28;20312;-79
2021/01/06 05:26:08;;;;;;;;;;;1.10;99.90;;;;;;5037095;28;19925;-79
2021/01/06 05:28:34;;;;;;;;;;;1.00;99.90;;;;;;5036658;28;19925;-79
2021/01/06 05:31:01;;;;;;;;;;;1.10;99.90;;;;;;5036560;28;19925;-79
2021/01/06 05:33:29;;;;;;;;;;;1.10;99.90;;;;;;5036718;28;19936;-79
2021/01/06 05:35:55;;;;;;;;;;;1.10;99.90;;;;;;5037157;28;19925;-79
2021/01/06 05:38:21;;;;;;;;;;;1.10;99.90;;;;;;5037025;28;20328;-79
2021/01/06 05:40:48;;;;;;;;;;;1.10;99.90;;;;;;5036398;28;20337;-79
2021/01/06 05:43:22;;;;;;;;;;;1.10;99.90;;;;;;5036744;28;20360;-78
2021/01/06 05:45:52;;;;;;;;;;;1.10;99.90;;;;;;5036696;28;20300;-79
2021/01/06 05:48:19;;;;;;;;;;;1.10;99.90;;;;;;5035944;28;19994;-78
2021/01/06 05:50:50;;;;;;;;;;;1.10;99.90;;;;;;5037542;28;19933;-79
2021/01/06 05:53:18;;;;;;;;;;;1.10;99.90;;;;;;5037162;28;19960;-79
2021/01/06 05:55:45;;;;;;;;;;;1.10;99.90;;;;;;5036863;28;19925;-79
2021/01/06 05:58:12;;;;;;;;;;;1.00;99.90;;;;;;5036635;28;19925;-79
2021/01/06 06:00:56;;;;;;;;;;;1.00;99.90;;;;;;5037024;28;19925;-78
2021/01/06 06:03:31;;;;;;;;;;;1.00;99.90;;;;;;5036094;28;19978;-79
2021/01/06 06:06:01;;;;;;;;;;;0.90;99.90;;;;;;5035883;28;20372;-79
2021/01/06 06:08:55;;;;;;;;;;;0.90;99.90;;;;;;5036646;28;19925;-79
2021/01/06 06:11:39;;;;;;;;;;;0.90;99.90;;;;;;4956848;29;19933;-79
2021/01/06 06:14:17;;;;;;;;;;;0.90;99.90;;;;;;4956926;29;19946;-78
2021/01/06 06:16:46;;;;;;;;;;;1.00;99.90;;;;;;4957305;29;19926;-79
2021/01/06 06:19:22;;;;;;;;;;;1.00;99.90;;;;;;4957037;29;20275;-79
2021/01/06 06:21:50;;;;;;;;;;;0.90;99.90;;;;;;4956966;29;19926;-78
2021/01/06 06:24:25;;;;;;;;;;;0.90;99.90;;;;;;4957035;29;19934;-79
2021/01/06 06:26:54;;;;;;;;;;;0.90;99.90;;;;;;4959053;28;20009;-77
2021/01/06 06:29:21;;;;;;;;;;;0.80;99.90;;;;;;4960327;29;19927;-77
2021/01/06 06:31:49;;;;;;;;;;;0.80;99.90;;;;;;4960315;29;20389;-77
2021/01/06 06:34:15;;;;;;;;;;;0.80;99.90;;;;;;4960331;29;20256;-77
2021/01/06 06:36:43;;;;;;;;;;;0.80;99.90;;;;;;4959944;29;19927;-77
2021/01/06 06:39:13;;;;;;;;;;;0.70;99.90;;;;;;4959634;29;19930;-77
2021/01/06 06:41:40;;;;;;;;;;;0.80;99.90;;;;;;4960379;29;19937;-77
2021/01/06 06:44:18;;;;;;;;;;;0.70;99.90;;;;;;4959745;29;19927;-76
2021/01/06 06:46:47;;;;;;;;;;;0.70;99.90;;;;;;4990955;28;20308;-77
2021/01/06 06:49:23;;;;;;;;;;;0.70;99.90;;;;;;5039365;28;19936;-77
2021/01/06 06:51:55;;;;;;;;;;;0.70;99.90;;;;;;5039656;28;19991;-77
2021/01/06 06:54:24;;;;;;;;;;;0.60;99.90;;;;;;5039450;28;19925;-77
2021/01/06 06:56:52;;;;;;;;;;;0.60;99.90;;;;;;5039762;28;20334;-77
2021/01/06 06:59:20;;;;;;;;;;;0.60;99.90;;;;;;5039466;28;19925;-77
2021/01/06 07:01:46;;;;;;;;;;;0.60;99.90;;;;;;5039819;28;19936;-77
2021/01/06 07:04:15;;;;;;;;;;;0.60;99.90;;;;;;5039882;28;19925;-77
2021/01/06 07:06:42;;;;;;;;;;;0.70;99.90;;;;;;5039633;28;20338;-77
2021/01/06 07:09:14;;;;;;;;;;;0.70;99.90;;;;;;5038656;28;19925;-77
2021/01/06 07:11:42;;;;;;;;;;;0.80;99.90;;;;;;5039134;28;19935;-77
2021/01/06 07:14:15;;;;;;;;;;;0.80;99.90;;;;;;5039651;28;19931;-77
2021/01/06 07:16:46;;;;;;;;;;;0.80;99.90;;;;;;5039522;28;19925;-77
2021/01/06 07:19:14;;;;;;;;;;;0.90;99.90;;;;;;5038904;28;19925;-77
2021/01/06 07:21:41;;;;;;;;;;;0.90;99.90;;;;;;5038809;28;19925;-76
2021/01/06 07:24:12;;;;;;;;;;;1.00;99.90;;;;;;5039351;28;19998;-77
2021/01/06 07:26:39;;;;;;;;;;;1.00;99.90;;;;;;5039102;28;20305;-77
2021/01/06 07:29:06;;;;;;;;;;;1.00;99.90;;;;;;5038664;28;19986;-77
2021/01/06 07:31:37;;;;;;;;;;;1.00;99.90;;;;;;5038433;28;20249;-77
2021/01/06 07:34:06;;;;;;;;;;;1.00;99.90;;;;;;5039069;28;19931;-77
2021/01/06 07:36:33;;;;;;;;;;;1.00;99.90;;;;;;5039244;28;19972;-77
2021/01/06 07:38:59;;;;;;;;;;;1.00;99.90;;;;;;5039257;28;19929;-77
2021/01/06 07:41:25;;;;;;;;;;;1.00;99.90;;;;;;5039414;28;20353;-77
2021/01/06 07:44:00;;;;;;;;;;;1.10;99.90;;;;;;5040087;28;19958;-77
2021/01/06 07:46:26;;;;;;;;;;;1.10;99.90;;;;;;5039903;28;19925;-77
2021/01/06 07:48:55;;;;;;;;;;;1.10;99.90;;;;;;5040022;28;20025;-77
2021/01/06 07:51:31;;;;;;;;;;;1.10;99.90;;;;;;5039775;28;20308;-77
2021/01/06 07:54:01;;;;;;;;;;;1.20;99.90;;;;;;5040360;28;19925;-77
2021/01/06 07:56:30;;;;;;;;;;;1.20;99.90;;;;;;5040206;28;19925;-77
2021/01/06 07:58:56;;;;;;;;;;;1.20;99.90;;;;;;5039444;28;19925;-77
2021/01/06 08:01:32;;;;;;;;;;;1.20;99.90;;;;;;5038930;28;19983;-77
2021/01/06 08:04:00;;;;;;;;;;;1.30;99.90;;;;;;5039848;28;20100;-77
2021/01/06 08:06:37;;;;;;;;;;;1.30;99.90;;;;;;5039321;28;19925;-77
2021/01/06 08:09:04;;;;;;;;;;;1.30;99.90;;;;;;5038882;28;19925;-77
2021/01/06 08:11:30;;;;;;;;;;;1.40;99.90;;;;;;5039279;28;19935;-77
2021/01/06 08:13:57;;;;;;;;;;;1.40;99.90;;;;;;5038762;28;19925;-77
2021/01/06 08:16:25;;;;;;;;;;;1.40;99.90;;;;;;5038540;28;19935;-77
2021/01/06 08:19:04;;;;;;;;;;;1.40;99.90;;;;;;5039317;28;19932;-77
2021/01/06 08:21:32;;;;;;;;;;;1.40;99.90;;;;;;5038976;28;19937;-77
2021/01/06 08:24:10;;;;;;;;;;;1.50;99.90;;;;;;5038373;28;19929;-77
2021/01/06 08:26:36;;;;;;;;;;;1.50;99.90;;;;;;5039404;28;19959;-77
2021/01/06 08:29:14;;;;;;;;;;;1.50;99.90;;;;;;5039017;28;19933;-77
2021/01/06 08:31:40;;;;;;;;;;;1.50;99.90;;;;;;5039195;28;19931;-77
2021/01/06 08:34:07;;;;;;;;;;;1.50;99.90;;;;;;5039708;28;19935;-77
2021/01/06 08:36:34;;;;;;;;;;;1.50;99.90;;;;;;5039520;28;19926;-77
2021/01/06 08:39:07;;;;;;;;;;;1.50;99.90;;;;;;5039572;28;20381;-77
2021/01/06 08:41:34;;;;;;;;;;;1.60;99.90;;;;;;5038930;28;19933;-77
2021/01/06 08:44:00;;;;;;;;;;;1.60;99.90;;;;;;5039269;28;19925;-77
2021/01/06 08:46:28;;;;;;;;;;;1.60;99.90;;;;;;5039014;28;19936;-77
2021/01/06 08:49:09;;;;;;;;;;;1.60;99.90;;;;;;5038226;28;19998;-77
2021/01/06 08:51:44;;;;;;;;;;;1.60;99.90;;;;;;5039254;28;19926;-77
2021/01/06 08:54:16;;;;;;;;;;;1.60;99.90;;;;;;5039624;28;19925;-77
2021/01/06 08:56:44;;;;;;;;;;;1.70;99.90;;;;;;5038976;28;19925;-77
2021/01/06 08:59:27;;;;;;;;;;;1.70;99.90;;;;;;5039052;28;19925;-77
2021/01/06 09:01:58;;;;;;;;;;;1.70;99.90;;;;;;5019109;28;19933;-77
2021/01/06 09:04:33;;;;;;;;;;;1.70;99.90;;;;;;5019636;28;19937;-77
2021/01/06 09:07:08;;;;;;;;;;;1.70;99.90;;;;;;5019737;28;19940;-77
2021/01/06 09:09:38;;;;;;;;;;;1.70;99.90;;;;;;5019489;28;19925;-77
2021/01/06 09:12:20;;;;;;;;;;;1.70;99.90;;;;;;5019127;28;19934;-77
2021/01/06 09:14:50;;;;;;;;;;;1.70;99.90;;;;;;5019527;28;19986;-77
2021/01/06 09:17:27;;;;;;;;;;;1.70;99.90;;;;;;5019327;28;19925;-77
2021/01/06 09:19:58;;;;;;;;;;;1.70;99.90;;;;;;5018923;28;19925;-77
2021/01/06 09:22:26;;;;;;;;;;;1.70;99.90;;;;;;5019265;28;19969;-77
2021/01/06 09:24:54;;;;;;;;;;;1.70;99.90;;;;;;5018932;28;19925;-77
2021/01/06 09:27:26;;;;;;;;;;;1.70;99.90;;;;;;5017884;28;19926;-77
2021/01/06 09:29:55;;;;;;;;;;;1.70;99.90;;;;;;5021988;28;19932;-77
2021/01/06 09:32:23;;;;;;;;;;;1.70;99.90;;;;;;5038142;28;19933;-77
2021/01/06 09:34:56;;;;;;;;;;;1.70;99.90;;;;;;5038238;28;19925;-77
2021/01/06 09:37:23;;;;;;;;;;;1.70;99.90;;;;;;5038292;28;19932;-77
2021/01/06 09:39:52;;;;;;;;;;;1.80;99.90;;;;;;5038587;28;19956;-77
2021/01/06 09:42:20;;;;;;;;;;;1.80;99.90;;;;;;5038664;28;20411;-77
2021/01/06 09:44:48;;;;;;;;;;;1.80;99.90;;;;;;5038681;28;20273;-77
2021/01/06 09:47:21;;;;;;;;;;;1.80;99.90;;;;;;5037559;28;19932;-77
2021/01/06 09:49:49;;;;;;;;;;;1.80;99.90;;;;;;5038232;28;20404;-77
2021/01/06 09:52:17;;;;;;;;;;;1.80;99.90;;;;;;5038064;28;19926;-77
2021/01/06 09:54:44;;;;;;;;;;;1.80;99.90;;;;;;5039028;28;20262;-77
2021/01/06 09:57:13;;;;;;;;;;;1.80;99.90;;;;;;5038697;28;19935;-77
2021/01/06 09:59:41;;;;;;;;;;;1.80;99.90;;;;;;5038549;28;19933;-77
2021/01/06 10:02:17;;;;;;;;;;;1.80;99.90;;;;;;5042094;28;19925;-77
2021/01/06 10:04:44;;;;;;;;;;;1.80;99.90;;;;;;5043710;28;19944;-77
2021/01/06 10:07:38;;;;;;;;;;;1.90;99.90;;;;;;5042830;28;20353;-77
2021/01/06 10:10:09;;;;;;;;;;;1.90;99.90;;;;;;4982324;28;19926;-77
2021/01/06 10:12:54;;;;;;;;;;;1.90;99.90;;;;;;4983150;28;19926;-77
2021/01/06 10:15:41;;;;;;;;;;;1.90;99.90;;;;;;4982854;28;19926;-77
2021/01/06 10:18:14;;;;;;;;;;;1.90;99.90;;;;;;4967744;28;20370;-77
2021/01/06 10:20:44;;;;;;;;;;;1.90;99.90;;;;;;4982246;28;19926;-77
2021/01/06 10:23:15;;;;;;;;;;;2.00;99.90;;;;;;4982743;28;19926;-77
2021/01/06 10:25:42;;;;;;;;;;;2.10;99.90;;;;;;4982711;28;19926;-77
2021/01/06 10:28:10;;;;;;;;;;;2.00;99.90;;;;;;4983176;28;19992;-77
2021/01/06 10:30:36;;;;;;;;;;;2.00;99.90;;;;;;4982112;28;19936;-77
2021/01/06 10:33:13;;;;;;;;;;;2.10;99.90;;;;;;4982872;28;19988;-77
2021/01/06 10:35:44;;;;;;;;;;;2.00;99.90;;;;;;4983335;28;19930;-77
2021/01/06 10:38:14;;;;;;;;;;;2.00;99.90;;;;;;4984133;28;19926;-77
2021/01/06 10:40:41;;;;;;;;;;;2.00;99.90;;;;;;4982638;28;20296;-77
2021/01/06 10:43:26;;;;;;;;;;;2.00;99.90;;;;;;4985150;28;19932;-77
2021/01/06 10:45:52;;;;;;;;;;;2.00;99.90;;;;;;5018970;28;19929;-77
2021/01/06 10:48:37;;;;;;;;;;;2.00;99.90;;;;;;5045936;28;19925;-77
2021/01/06 10:51:04;;;;;;;;;;;2.00;99.90;;;;;;5045232;28;20357;-77
2021/01/06 10:53:30;;;;;;;;;;;2.00;99.90;;;;;;5044363;28;19936;-77
2021/01/06 10:56:02;;;;;;;;;;;2.00;99.90;;;;;;5045148;28;19935;-77
2021/01/06 10:58:35;;;;;;;;;;;2.00;99.90;;;;;;5045145;28;20008;-77
2021/01/06 11:01:15;;;;;;;;;;;2.00;99.90;;;;;;5043977;28;19932;-77
2021/01/06 11:03:50;;;;;;;;;;;2.10;99.90;;;;;;5043868;28;19925;-77
2021/01/06 11:06:24;;;;;;;;;;;2.10;99.90;;;;;;5043856;28;19925;-77
2021/01/06 11:09:10;;;;;;;;;;;2.10;99.90;;;;;;5044088;28;19925;-77
2021/01/06 11:11:42;;;;;;;;;;;2.20;99.90;;;;;;5043057;28;19987;-77
2021/01/06 11:14:41;;;;;;;;;;;2.20;99.90;;;;;;5043118;28;20317;-77
2021/01/06 11:17:26;;;;;;;;;;;2.20;99.90;;;;;;5002526;28;20009;-77
2021/01/06 11:19:55;;;;;;;;;;;2.20;99.90;;;;;;5002660;28;19925;-77
2021/01/06 11:22:34;;;;;;;;;;;2.20;99.90;;;;;;5002419;28;19934;-77
2021/01/06 11:25:03;;;;;;;;;;;2.20;99.90;;;;;;5003931;28;19929;-77
2021/01/06 11:27:39;;;;;;;;;;;2.20;99.90;;;;;;5004410;28;19940;-77
2021/01/06 11:30:25;;;;;;;;;;;2.20;99.90;;;;;;5003996;28;19936;-77
2021/01/06 11:33:06;;;;;;;;;;;2.20;99.90;;;;;;5003477;28;19960;-77
2021/01/06 11:35:33;;;;;;;;;;;2.30;99.90;;;;;;5002658;28;19934;-77
2021/01/06 11:38:00;;;;;;;;;;;2.30;99.90;;;;;;5003413;28;19930;-77
2021/01/06 11:40:45;;;;;;;;;;;2.20;99.90;;;;;;5004327;28;20381;-77
2021/01/06 11:43:18;;;;;;;;;;;2.30;99.90;;;;;;5003191;28;19926;-77
2021/01/06 11:45:45;;;;;;;;;;;2.20;99.90;;;;;;5002760;28;20016;-77
2021/01/06 11:48:18;;;;;;;;;;;2.20;99.90;;;;;;5001648;28;20355;-77
2021/01/06 11:50:44;;;;;;;;;;;2.20;99.90;;;;;;5011503;28;19932;-79
2021/01/06 11:53:15;;;;;;;;;;;2.20;99.90;;;;;;5029236;28;19988;-78
2021/01/06 11:55:43;;;;;;;;;;;2.20;99.90;;;;;;5028110;28;19974;-78
2021/01/06 11:58:29;;;;;;;;;;;2.20;99.90;;;;;;5027562;28;20064;-78
2021/01/06 12:01:12;;;;;;;;;;;2.20;99.90;;;;;;5037589;23;19926;-75
2021/01/06 12:03:42;;;;;;;;;;;2.20;99.90;;;;;;5391287;23;19924;-79
2021/01/06 12:06:20;;;;;;;;;;;2.20;99.90;;;;;;5033397;28;19956;-80
2021/01/06 13:43:01;;;;;;;;;;;2.50;99.90;;;;;;6120634;23;19931;-80
2021/01/06 17:03:18;;;;;;;;;;;2.00;99.90;;;;;;5589196;23;19932;-79
2021/01/06 17:05:48;;;;;;;;;;;1.40;99.90;;;;;;5037507;28;19980;-79
2021/01/06 17:08:17;;;;;;;;;;;0.60;99.90;;;;;;5034569;28;19926;-78
2021/01/06 17:10:45;;;;;;;;;;;2.00;99.90;;;;;;5033364;28;19926;-78
2021/01/06 17:13:14;;;;;;;;;;;1.90;99.90;;;;;;5034843;28;19925;-78
2021/01/06 17:15:44;;;;;;;;;;;2.10;99.90;;;;;;5035304;28;19929;-79
2021/01/06 17:18:18;;;;;;;;;;;2.00;99.90;;;;;;5034586;28;19925;-79
2021/01/06 17:20:46;;;;;;;;;;;0.30;99.90;;;;;;5034231;28;19925;-79
2021/01/06 17:23:14;;;;;;;;;;;1.90;99.90;;;;;;5033689;28;19925;-78
2021/01/06 17:25:41;;;;;;;;;;;2.00;99.90;;;;;;5033186;28;19925;-78
2021/01/06 17:28:12;;;;;;;;;;;1.00;99.90;;;;;;5032975;28;19925;-78
2021/01/06 17:30:42;;;;;;;;;;;0.90;99.90;;;;;;5032750;28;19929;-78
2021/01/06 17:33:14;;;;;;;;;;;2.00;99.90;;;;;;5030730;28;20138;-78
2021/01/06 17:35:43;;;;;;;;;;;2.00;99.90;;;;;;5032159;28;19929;-78
2021/01/06 17:38:11;;;;;;;;;;;2.00;99.90;;;;;;5032272;28;19965;-78
2021/01/06 17:40:38;;;;;;;;;;;1.60;99.90;;;;;;5032556;28;19937;-79
2021/01/06 17:43:05;;;;;;;;;;;2.90;99.90;;;;;;5031119;28;20254;-78
2021/01/06 17:45:35;;;;;;;;;;;2.00;99.90;;;;;;5031934;28;20497;-78
2021/01/06 17:48:02;;;;;;;;;;;1.90;99.90;;;;;;5030455;28;19961;-78
2021/01/06 17:50:31;;;;;;;;;;;1.60;99.90;;;;;;5028692;28;19925;-78
2021/01/06 17:53:01;;;;;;;;;;;1.50;99.90;;;;;;5029784;28;19925;-78
2021/01/06 17:55:29;;;;;;;;;;;1.60;99.90;;;;;;5031252;28;19925;-78
2021/01/06 17:57:59;;;;;;;;;;;1.40;99.90;;;;;;5031182;28;19952;-78
2021/01/06 18:00:28;;;;;;;;;;;1.40;99.90;;;;;;5030428;28;19926;-78
2021/01/06 18:02:56;;;;;;;;;;;1.60;99.90;;;;;;5036768;28;19940;-78
2021/01/06 18:05:24;;;;;;;;;;;1.20;99.90;;;;;;5048781;28;19964;-78
2021/01/06 18:07:53;;;;;;;;;;;1.20;99.90;;;;;;5047548;28;19925;-78
2021/01/06 18:10:20;;;;;;;;;;;1.20;99.90;;;;;;5046749;28;20204;-78
2021/01/06 18:12:49;;;;;;;;;;;1.20;99.90;;;;;;5047312;28;19925;-78
2021/01/06 18:15:26;;;;;;;;;;;1.20;99.90;;;;;;5109627;23;19953;-78
2021/01/06 18:18:11;;;;;;;;;;;1.70;99.90;;;;;;4951571;28;19988;-78
2021/01/06 18:20:38;;;;;;;;;;;1.20;99.90;;;;;;4974057;28;19926;-78
2021/01/06 18:23:06;;;;;;;;;;;1.10;99.90;;;;;;4979828;28;19927;-77
2021/01/06 18:25:34;;;;;;;;;;;1.10;99.90;;;;;;4981076;28;20266;-78
2021/01/06 18:28:08;;;;;;;;;;;1.10;99.90;;;;;;4982495;28;19960;-78
2021/01/06 18:30:34;;;;;;;;;;;1.10;99.90;;;;;;4982247;28;20029;-78
2021/01/06 18:33:05;;;;;;;;;;;1.10;99.90;;;;;;4982420;28;19925;-77
2021/01/06 18:35:32;;;;;;;;;;;1.10;99.90;;;;;;4982551;28;19993;-78
2021/01/06 18:37:58;;;;;;;;;;;1.10;99.90;;;;;;4991496;28;19933;-78
2021/01/06 18:40:27;;;;;;;;;;;0.10;99.90;;;;;;4990893;28;19926;-79
2021/01/06 18:42:53;;;;;;;;;;;1.00;99.90;;;;;;4991068;28;19926;-78
2021/01/06 18:45:20;;;;;;;;;;;0.90;99.90;;;;;;4985239;28;19954;-78
2021/01/06 18:47:49;;;;;;;;;;;1.00;99.90;;;;;;4980993;28;20271;-78
2021/01/06 18:50:20;;;;;;;;;;;0.90;99.90;;;;;;4985518;28;20326;-77
2021/01/06 18:52:49;;;;;;;;;;;0.90;99.90;;;;;;4984186;28;19925;-79
2021/01/06 18:55:31;;;;;;;;;;;0.90;99.90;;;;;;4985561;28;19937;-77
2021/01/06 18:58:01;;;;;;;;;;;0.90;99.90;;;;;;4983568;28;19926;-77
2021/01/06 19:00:40;;;;;;;;;;;0.90;99.90;;;;;;4982567;28;19933;-78
2021/01/06 19:03:07;;;;;;;;;;;0.90;99.90;;;;;;4982280;28;19926;-78
2021/01/06 19:05:43;;;;;;;;;;;0.80;99.90;;;;;;4981972;28;19932;-78
2021/01/06 19:08:10;;;;;;;;;;;0.80;99.90;;;;;;4983548;28;20495;-78
2021/01/06 19:10:38;;;;;;;;;;;0.80;99.90;;;;;;4984832;28;19937;-78
2021/01/06 19:13:06;;;;;;;;;;;0.80;99.90;;;;;;4979941;28;19975;-77
2021/01/06 19:15:42;;;;;;;;;;;0.80;99.90;;;;;;4986161;28;19926;-77
2021/01/06 19:18:22;;;;;;;;;;;0.70;99.90;;;;;;4999014;28;19925;-78
2021/01/06 19:23:25;;;;;;;;;;;0.70;99.90;;;;;;5072878;23;19925;-77
2021/01/06 19:25:52;;;;;;;;;;;0.70;99.90;;;;;;5019689;28;19936;-78
2021/01/06 19:28:24;;;;;;;;;;;0.70;99.90;;;;;;5022353;28;19976;-78
2021/01/06 19:30:52;;;;;;;;;;;0.70;99.90;;;;;;5007062;28;20266;-79
2021/01/06 19:33:33;;;;;;;;;;;0.70;99.90;;;;;;5008465;28;20048;-77
2021/01/06 19:36:11;;;;;;;;;;;0.60;99.90;;;;;;5005397;28;19932;-78
2021/01/06 19:38:45;;;;;;;;;;;0.60;99.90;;;;;;5003514;28;19925;-79
2021/01/06 19:41:14;;;;;;;;;;;0.50;99.90;;;;;;4998062;28;19956;-78
2021/01/06 19:43:50;;;;;;;;;;;0.60;99.90;;;;;;5014893;28;20388;-79